createdAt,value
2023-10-28T00:02:16.141Z,98835.44
2023-10-28T00:05:20.262Z,98807.84
2023-10-28T00:08:24.145Z,98809.72
2023-10-28T00:11:28.405Z,98829.72
2023-10-28T00:14:32.839Z,98788.13
2023-10-28T00:17:38.827Z,98830.66
2023-10-28T00:20:45.458Z,98847.63
2023-10-28T00:23:49.435Z,98842.75
2023-10-28T00:26:53.268Z,98845.53
2023-10-28T00:29:57.406Z,98819.47
2023-10-28T00:33:02.012Z,98831.25
2023-10-28T00:36:08.580Z,98834.44
2023-10-28T00:39:12.829Z,98817.00
2023-10-28T00:42:18.295Z,98806.66
2023-10-28T00:45:22.424Z,98836.41
2023-10-28T00:48:27.359Z,98818.63
2023-10-28T00:51:33.045Z,98809.47
2023-10-28T00:54:37.106Z,98817.31
2023-10-28T00:57:45.073Z,98823.56
2023-10-28T01:00:49.685Z,98818.84
2023-10-28T01:03:55.443Z,98830.19
2023-10-28T01:06:59.241Z,98829.88
2023-10-28T01:10:04.599Z,98814.13
2023-10-28T01:13:09.424Z,98826.34
2023-10-28T01:16:14.052Z,98828.59
2023-10-28T01:19:18.353Z,98827.59
2023-10-28T01:22:22.542Z,98825.13
2023-10-28T01:25:26.650Z,98782.19
2023-10-28T01:28:30.803Z,98793.31
2023-10-28T01:31:35.163Z,98822.78
2023-10-28T01:34:52.697Z,98820.56
2023-10-28T01:37:56.787Z,98826.81
2023-10-28T01:41:01.500Z,98787.91
2023-10-28T01:44:06.528Z,98805.84
2023-10-28T01:47:10.763Z,98835.63
2023-10-28T01:50:15.089Z,98829.53
2023-10-28T01:53:19.509Z,98801.06
2023-10-28T01:56:23.994Z,98811.91
2023-10-28T01:59:28.353Z,98804.75
2023-10-28T02:02:37.505Z,98840.09
2023-10-28T02:05:41.649Z,98823.38
2023-10-28T02:08:46.871Z,98836.34
2023-10-28T02:11:53.450Z,98814.59
2023-10-28T02:14:57.331Z,98811.56
2023-10-28T02:18:01.653Z,98844.28
2023-10-28T02:21:05.840Z,98849.66
2023-10-28T02:24:10.059Z,98797.06
2023-10-28T02:27:14.281Z,98856.25
2023-10-28T02:30:18.452Z,98854.97
2023-10-28T02:33:22.811Z,98847.69
2023-10-28T02:36:26.952Z,98846.97
2023-10-28T02:39:31.629Z,98802.09
2023-10-28T02:42:36.301Z,98851.09
2023-10-28T02:45:40.933Z,98846.69
2023-10-28T02:48:44.949Z,98854.34
2023-10-28T02:51:49.137Z,98804.72
2023-10-28T02:54:54.036Z,98813.88
2023-10-28T02:57:58.085Z,98846.59
2023-10-28T03:01:12.857Z,98814.72
2023-10-28T03:04:18.173Z,98855.66
2023-10-28T03:07:22.597Z,98856.00
2023-10-28T03:10:27.301Z,98853.50
2023-10-28T03:13:31.538Z,98854.13
2023-10-28T03:16:36.029Z,98850.59
2023-10-28T03:19:40.581Z,98805.91
2023-10-28T03:22:44.790Z,98799.19
2023-10-28T03:25:48.762Z,98851.31
2023-10-28T03:28:52.583Z,98845.34
2023-10-28T03:31:56.641Z,98836.56
2023-10-28T03:35:00.955Z,98853.88
2023-10-28T03:38:05.296Z,98822.69
2023-10-28T03:41:12.743Z,98869.16
2023-10-28T03:44:16.854Z,98862.03
2023-10-28T03:47:22.488Z,98845.50
2023-10-28T03:50:26.882Z,98867.19
2023-10-28T03:53:31.763Z,98840.75
2023-10-28T03:56:35.669Z,98873.66
2023-10-28T03:59:39.769Z,98868.72
2023-10-28T04:02:43.922Z,98874.97
2023-10-28T04:05:51.977Z,98874.78
2023-10-28T04:08:56.783Z,98873.41
2023-10-28T04:12:01.302Z,98857.38
2023-10-28T04:15:06.196Z,98882.03
2023-10-28T04:18:10.586Z,98879.72
2023-10-28T04:21:15.012Z,98869.94
2023-10-28T04:24:19.420Z,98858.78
2023-10-28T04:27:23.521Z,98853.34
2023-10-28T04:30:28.020Z,98880.53
2023-10-28T04:33:32.352Z,98879.22
2023-10-28T04:36:36.490Z,98886.53
2023-10-28T04:39:42.098Z,98890.84
2023-10-28T04:42:48.258Z,98891.91
2023-10-28T04:45:53.745Z,98886.81
2023-10-28T04:48:58.100Z,98851.34
2023-10-28T04:52:02.313Z,98847.59
2023-10-28T04:55:06.966Z,98892.13
2023-10-28T04:58:11.599Z,98887.31
2023-10-28T05:01:16.214Z,98861.28
2023-10-28T05:04:20.763Z,98886.78
2023-10-28T05:07:25.416Z,98888.47
2023-10-28T05:10:31.575Z,98840.66
2023-10-28T05:13:35.951Z,98862.94
2023-10-28T05:16:40.313Z,98881.88
2023-10-28T05:19:45.203Z,98883.09
2023-10-28T05:22:49.959Z,98874.13
2023-10-28T05:25:55.119Z,98883.16
2023-10-28T05:28:59.380Z,98864.00
2023-10-28T05:32:03.616Z,98880.56
2023-10-28T05:35:11.937Z,98893.25
2023-10-28T05:38:16.022Z,98845.72
2023-10-28T05:41:20.141Z,98894.09
2023-10-28T05:44:24.347Z,98894.13
2023-10-28T05:47:28.563Z,98897.03
2023-10-28T05:50:32.794Z,98871.34
2023-10-28T05:53:37.091Z,98894.34
2023-10-28T05:56:41.307Z,98892.66
2023-10-28T05:59:45.806Z,98900.69
2023-10-28T06:02:50.814Z,98873.75
2023-10-28T06:05:56.402Z,98896.50
2023-10-28T06:09:00.388Z,98900.19
2023-10-28T06:12:05.131Z,98893.63
2023-10-28T06:15:10.035Z,98912.22
2023-10-28T06:18:14.013Z,98883.78
2023-10-28T06:21:17.845Z,98914.47
2023-10-28T06:24:21.833Z,98863.09
2023-10-28T06:27:26.132Z,98915.72
2023-10-28T06:30:30.057Z,98880.94
2023-10-28T06:33:33.904Z,98920.69
2023-10-28T06:36:38.037Z,98871.94
2023-10-28T06:39:42.206Z,98895.06
2023-10-28T06:42:46.851Z,98924.75
2023-10-28T06:45:51.766Z,98870.56
2023-10-28T06:48:55.821Z,98925.88
2023-10-28T06:51:59.760Z,98918.53
2023-10-28T06:55:04.578Z,98885.38
2023-10-28T06:58:08.835Z,98941.78
2023-10-28T07:01:13.182Z,98937.06
2023-10-28T07:04:17.301Z,98938.53
2023-10-28T07:07:21.602Z,98850.94
2023-10-28T07:10:26.838Z,98954.31
2023-10-28T07:13:31.362Z,98941.78
2023-10-28T07:16:35.965Z,98946.06
2023-10-28T07:19:40.285Z,98913.44
2023-10-28T07:22:44.699Z,98942.81
2023-10-28T07:25:49.279Z,98949.47
2023-10-28T07:28:53.417Z,98952.03
2023-10-28T07:31:58.358Z,98935.94
2023-10-28T07:35:03.358Z,98909.19
2023-10-28T07:38:07.508Z,98946.06
2023-10-28T07:41:11.392Z,98945.59
2023-10-28T07:44:15.552Z,98920.38
2023-10-28T07:47:19.938Z,98936.97
2023-10-28T07:50:24.514Z,98901.22
2023-10-28T07:53:28.414Z,98959.47
2023-10-28T07:56:33.549Z,98957.47
2023-10-28T07:59:37.949Z,98952.41
2023-10-28T08:02:46.147Z,98913.06
2023-10-28T08:05:50.257Z,98944.66
2023-10-28T08:08:54.762Z,98959.41
2023-10-28T08:11:58.873Z,98960.34
2023-10-28T08:15:04.267Z,98958.53
2023-10-28T08:18:08.629Z,98942.84
2023-10-28T08:21:15.203Z,98967.16
2023-10-28T08:24:22.008Z,98954.97
2023-10-28T08:27:26.285Z,98941.53
2023-10-28T08:30:30.475Z,98972.88
2023-10-28T08:33:38.200Z,98898.97
2023-10-28T08:36:45.340Z,98949.69
2023-10-28T08:39:49.209Z,98981.38
2023-10-28T08:42:53.331Z,98954.03
2023-10-28T08:45:57.740Z,98953.44
2023-10-28T08:49:02.390Z,98964.81
2023-10-28T08:52:08.216Z,98991.75
2023-10-28T08:55:12.440Z,98999.06
2023-10-28T08:58:17.638Z,99001.31
2023-10-28T09:01:25.237Z,99004.94
2023-10-28T09:04:29.528Z,99004.97
2023-10-28T09:07:33.880Z,99008.06
2023-10-28T09:10:42.306Z,99006.28
2023-10-28T09:13:46.629Z,99010.66
2023-10-28T09:16:50.731Z,99014.03
2023-10-28T09:19:55.081Z,99031.22
2023-10-28T09:22:59.357Z,98992.88
2023-10-28T09:26:04.244Z,99003.94
2023-10-28T09:29:09.208Z,99017.44
2023-10-28T09:32:13.115Z,99043.19
2023-10-28T09:35:17.504Z,99032.44
2023-10-28T09:38:21.825Z,99036.81
2023-10-28T09:41:28.899Z,99022.16
2023-10-28T09:44:35.441Z,99022.31
2023-10-28T09:47:39.841Z,99042.47
2023-10-28T09:50:50.024Z,98998.34
2023-10-28T09:54:01.037Z,99032.19
2023-10-28T09:57:05.275Z,99031.25
2023-10-28T10:00:24.628Z,99046.56
2023-10-28T10:03:35.038Z,99045.09
2023-10-28T10:06:38.993Z,99041.31
2023-10-28T10:09:49.810Z,99023.22
2023-10-28T10:13:04.443Z,99040.28
2023-10-28T10:16:15.258Z,99034.13
2023-10-28T10:19:29.203Z,99044.72
2023-10-28T10:22:36.292Z,99029.00
2023-10-28T10:25:44.948Z,99024.75
2023-10-28T10:28:49.173Z,98965.06
2023-10-28T10:31:54.143Z,99044.47
2023-10-28T10:34:58.255Z,99048.06
2023-10-28T10:38:09.796Z,99027.34
2023-10-28T10:41:25.956Z,99027.56
2023-10-28T10:44:35.091Z,99033.28
2023-10-28T10:47:39.333Z,99034.88
2023-10-28T10:50:43.485Z,99036.88
2023-10-28T10:53:47.766Z,99046.00
2023-10-28T10:56:52.208Z,99043.22
2023-10-28T10:59:56.349Z,99039.66
2023-10-28T11:03:01.583Z,98986.78
2023-10-28T11:06:06.479Z,99057.22
2023-10-28T11:09:10.921Z,99042.91
2023-10-28T11:12:15.756Z,99017.59
2023-10-28T11:15:22.987Z,99009.53
2023-10-28T11:18:27.482Z,99029.13
2023-10-28T11:21:32.956Z,99018.94
2023-10-28T11:24:38.633Z,99019.53
2023-10-28T11:27:42.912Z,99003.91
2023-10-28T11:30:51.968Z,98993.28
2023-10-28T11:33:58.055Z,99009.03
2023-10-28T11:37:02.186Z,98999.84
2023-10-28T11:40:07.112Z,98997.13
2023-10-28T11:43:17.617Z,98996.88
2023-10-28T11:46:22.457Z,98974.41
2023-10-28T11:49:26.557Z,98973.66
2023-10-28T11:52:30.915Z,98958.16
2023-10-28T11:55:35.080Z,98976.56
2023-10-28T11:58:39.507Z,98975.75
2023-10-28T12:01:43.611Z,98977.81
2023-10-28T12:04:47.946Z,98941.78
2023-10-28T12:07:51.898Z,98968.06
2023-10-28T12:10:56.470Z,98958.88
2023-10-28T12:14:00.609Z,98963.78
2023-10-28T12:17:05.023Z,98954.22
2023-10-28T12:20:09.485Z,98947.66
2023-10-28T12:23:14.458Z,98971.63
2023-10-28T12:26:21.513Z,98975.75
2023-10-28T12:29:26.345Z,98984.44
2023-10-28T12:32:30.573Z,98985.53
2023-10-28T12:35:35.170Z,98974.28
2023-10-28T12:38:46.161Z,98953.38
2023-10-28T12:41:50.840Z,98974.50
2023-10-28T12:44:54.997Z,98985.28
2023-10-28T12:47:59.051Z,98972.84
2023-10-28T12:51:03.651Z,98983.63
2023-10-28T12:54:07.867Z,98988.91
2023-10-28T12:57:12.718Z,98984.03
2023-10-28T13:00:18.699Z,98937.78
2023-10-28T13:03:22.926Z,98960.88
2023-10-28T13:06:27.025Z,98990.81
2023-10-28T13:09:31.363Z,98999.44
2023-10-28T13:12:35.721Z,98980.22
2023-10-28T13:15:41.250Z,99000.13
2023-10-28T13:18:45.572Z,98996.50
2023-10-28T13:21:50.727Z,98995.31
2023-10-28T13:24:54.982Z,98964.63
2023-10-28T13:27:59.075Z,99002.19
2023-10-28T13:31:03.155Z,98952.66
2023-10-28T13:34:09.902Z,98957.81
2023-10-28T13:37:16.420Z,98994.75
2023-10-28T13:40:20.800Z,98955.31
2023-10-28T13:43:25.026Z,99011.94
2023-10-28T13:46:29.408Z,99011.81
2023-10-28T13:49:34.498Z,98973.66
2023-10-28T13:52:39.970Z,98984.56
2023-10-28T13:55:43.774Z,98945.22
2023-10-28T13:58:48.044Z,98993.84
2023-10-28T14:01:52.994Z,99013.13
2023-10-28T14:04:57.167Z,98982.25
2023-10-28T14:08:01.811Z,98978.44
2023-10-28T14:11:09.344Z,99004.22
2023-10-28T14:14:14.724Z,98988.84
2023-10-28T14:17:18.644Z,99024.03
2023-10-28T14:20:22.891Z,98994.41
2023-10-28T14:23:27.144Z,98974.31
2023-10-28T14:26:31.345Z,99025.63
2023-10-28T14:29:35.647Z,98973.41
2023-10-28T14:32:39.840Z,99032.91
2023-10-28T14:35:44.473Z,98973.28
2023-10-28T14:38:48.520Z,99030.75
2023-10-28T14:41:52.424Z,99018.56
2023-10-28T14:44:56.441Z,99021.50
2023-10-28T14:48:01.239Z,99032.25
2023-10-28T14:51:08.090Z,99040.09
2023-10-28T14:54:13.152Z,99042.31
2023-10-28T14:57:17.098Z,99029.41
2023-10-28T15:00:23.720Z,99027.84
2023-10-28T15:03:27.695Z,99035.69
2023-10-28T15:06:32.192Z,99039.09
2023-10-28T15:09:36.449Z,99026.19
2023-10-28T15:12:40.711Z,99040.72
2023-10-28T15:15:44.976Z,99032.88
2023-10-28T15:18:50.317Z,99040.81
2023-10-28T15:21:56.182Z,99036.69
2023-10-28T15:24:59.981Z,99016.34
2023-10-28T15:28:04.422Z,99037.69
2023-10-28T15:31:10.917Z,99027.38
2023-10-28T15:34:15.027Z,99022.69
2023-10-28T15:37:19.354Z,99032.63
2023-10-28T15:40:24.222Z,99029.06
2023-10-28T15:43:29.605Z,99040.06
2023-10-28T15:46:33.785Z,98999.41
2023-10-28T15:49:38.118Z,99040.47
2023-10-28T15:52:42.261Z,98988.75
2023-10-28T15:55:46.852Z,99025.56
2023-10-28T15:58:52.416Z,99033.91
2023-10-28T16:01:56.351Z,98989.78
2023-10-28T16:05:00.565Z,99035.19
2023-10-28T16:08:05.422Z,99015.81
2023-10-28T16:11:12.131Z,99024.53
2023-10-28T16:14:16.628Z,99035.47
2023-10-28T16:17:21.378Z,99020.00
2023-10-28T16:20:25.772Z,99032.53
2023-10-28T16:23:30.624Z,99032.34
2023-10-28T16:26:35.172Z,99015.22
2023-10-28T16:29:39.133Z,99045.72
2023-10-28T16:32:43.614Z,99036.56
2023-10-28T16:35:48.197Z,99002.06
2023-10-28T16:38:52.317Z,99033.94
2023-10-28T16:41:56.657Z,99027.47
2023-10-28T16:45:00.866Z,99039.22
2023-10-28T16:48:05.351Z,99031.16
2023-10-28T16:51:14.233Z,98983.38
2023-10-28T16:54:18.161Z,99028.22
2023-10-28T16:57:22.502Z,99031.91
2023-10-28T17:00:26.917Z,99025.00
2023-10-28T17:03:31.803Z,99037.03
2023-10-28T17:06:35.986Z,99016.13
2023-10-28T17:09:40.019Z,99023.63
2023-10-28T17:12:44.262Z,99011.28
2023-10-28T17:15:48.576Z,99021.75
2023-10-28T17:18:52.786Z,99040.03
2023-10-28T17:21:56.827Z,99049.28
2023-10-28T17:25:01.039Z,99055.31
2023-10-28T17:28:05.462Z,99059.72
2023-10-28T17:31:12.879Z,99025.56
2023-10-28T17:34:17.281Z,99066.09
2023-10-28T17:37:21.415Z,99022.03
2023-10-28T17:40:25.608Z,99055.38
2023-10-28T17:43:29.938Z,99041.44
2023-10-28T17:46:34.216Z,99073.25
2023-10-28T17:49:38.928Z,99024.66
2023-10-28T17:52:44.558Z,99074.53
2023-10-28T17:55:48.408Z,99077.81
2023-10-28T17:58:52.225Z,99069.00
2023-10-28T18:01:56.379Z,99069.44
2023-10-28T18:05:00.566Z,99016.16
2023-10-28T18:08:04.895Z,99061.00
2023-10-28T18:11:09.879Z,99056.38
2023-10-28T18:14:14.264Z,99058.63
2023-10-28T18:17:18.605Z,99061.22
2023-10-28T18:20:23.048Z,99061.22
2023-10-28T18:23:32.510Z,99061.63
2023-10-28T18:26:37.144Z,99067.72
2023-10-28T18:29:42.826Z,99070.53
2023-10-28T18:32:46.952Z,99072.81
2023-10-28T18:35:51.223Z,99059.81
2023-10-28T18:38:55.762Z,99072.03
2023-10-28T18:42:00.316Z,99069.66
2023-10-28T18:45:05.364Z,99015.56
2023-10-28T18:48:10.710Z,99057.28
2023-10-28T18:51:15.275Z,99068.88
2023-10-28T18:54:19.856Z,99070.25
2023-10-28T18:57:24.149Z,99039.06
2023-10-28T19:00:28.552Z,99060.38
2023-10-28T19:03:33.130Z,99001.31
2023-10-28T19:06:36.924Z,99059.47
2023-10-28T19:09:41.045Z,99041.06
2023-10-28T19:12:45.596Z,99043.03
2023-10-28T19:15:50.944Z,99036.09
2023-10-28T19:18:55.299Z,99051.88
2023-10-28T19:22:00.607Z,99052.88
2023-10-28T19:25:06.832Z,99006.00
2023-10-28T19:28:11.097Z,99033.25
2023-10-28T19:31:15.590Z,99050.31
2023-10-28T19:34:20.013Z,99025.72
2023-10-28T19:37:24.212Z,99007.81
2023-10-28T19:40:28.485Z,99027.38
2023-10-28T19:43:35.877Z,99035.03
2023-10-28T19:46:39.916Z,99031.25
2023-10-28T19:49:44.631Z,98994.53
2023-10-28T19:52:48.679Z,98997.22
2023-10-28T19:55:53.100Z,99025.91
2023-10-28T19:58:56.976Z,99016.69
2023-10-28T20:02:01.317Z,99023.91
2023-10-28T20:05:07.614Z,99015.59
2023-10-28T20:08:11.548Z,99014.78
2023-10-28T20:11:16.138Z,98998.22
2023-10-28T20:14:21.313Z,98964.91
2023-10-28T20:17:26.191Z,99001.38
2023-10-28T20:20:30.669Z,99003.72
2023-10-28T20:23:34.921Z,99009.19
2023-10-28T20:26:39.846Z,98960.19
2023-10-28T20:29:44.374Z,98998.88
2023-10-28T20:32:48.629Z,99000.91
2023-10-28T20:35:53.765Z,98967.22
2023-10-28T20:38:58.158Z,98997.28
2023-10-28T20:42:02.527Z,98947.81
2023-10-28T20:45:09.937Z,98992.97
2023-10-28T20:48:14.140Z,98988.03
2023-10-28T20:51:21.637Z,98915.13
2023-10-28T20:54:25.661Z,98987.59
2023-10-28T20:57:29.859Z,98961.34
2023-10-28T21:00:34.134Z,98958.66
2023-10-28T21:03:38.452Z,98976.56
2023-10-28T21:06:42.674Z,98969.78
2023-10-28T21:09:47.039Z,98957.03
2023-10-28T21:12:51.178Z,98977.88
2023-10-28T21:15:56.115Z,98953.16
2023-10-28T21:19:00.334Z,98981.25
2023-10-28T21:22:04.489Z,98960.41
2023-10-28T21:25:08.981Z,98966.66
2023-10-28T21:28:13.089Z,98915.47
2023-10-28T21:31:17.493Z,98952.50
2023-10-28T21:34:21.526Z,98948.81
2023-10-28T21:37:26.364Z,98946.19
2023-10-28T21:40:30.262Z,98945.44
2023-10-28T21:43:34.807Z,98922.09
2023-10-28T21:46:39.049Z,98926.69
2023-10-28T21:49:43.466Z,98924.06
2023-10-28T21:52:47.723Z,98920.94
2023-10-28T21:55:51.628Z,98872.91
2023-10-28T21:58:56.604Z,98908.44
2023-10-28T22:02:00.950Z,98898.16
2023-10-28T22:05:05.459Z,98869.06
2023-10-28T22:08:09.995Z,98892.63
2023-10-28T22:11:13.848Z,98876.16
2023-10-28T22:14:18.462Z,98878.78
2023-10-28T22:17:23.291Z,98875.81
2023-10-28T22:20:27.653Z,98878.72
2023-10-28T22:23:31.792Z,98872.66
2023-10-28T22:26:35.918Z,98863.91
2023-10-28T22:29:40.136Z,98862.84
2023-10-28T22:32:44.453Z,98858.66
2023-10-28T22:35:48.954Z,98842.78
2023-10-28T22:38:54.784Z,98852.09
2023-10-28T22:41:58.516Z,98835.59
2023-10-28T22:45:05.515Z,98835.78
2023-10-28T22:48:09.980Z,98824.44
2023-10-28T22:51:14.346Z,98789.84
2023-10-28T22:54:18.775Z,98813.06
2023-10-28T22:57:23.679Z,98813.13
2023-10-28T23:00:32.266Z,98805.81
2023-10-28T23:03:36.262Z,98777.25
2023-10-28T23:06:40.397Z,98782.09
2023-10-28T23:09:44.705Z,98775.03
2023-10-28T23:12:49.033Z,98773.41
2023-10-28T23:15:53.665Z,98776.63
2023-10-28T23:18:57.499Z,98758.13
2023-10-28T23:22:01.836Z,98772.38
2023-10-28T23:25:09.978Z,98729.59
2023-10-28T23:28:14.328Z,98774.59
2023-10-28T23:31:18.603Z,98790.66
2023-10-28T23:34:22.819Z,98785.16
2023-10-28T23:37:34.018Z,98762.28
2023-10-28T23:40:38.476Z,98751.28
2023-10-28T23:43:42.414Z,98744.19
2023-10-28T23:46:47.822Z,98734.78
2023-10-28T23:49:51.907Z,98724.34
2023-10-28T23:52:56.096Z,98752.63
2023-10-28T23:56:00.302Z,98736.91
2023-10-28T23:59:04.481Z,98743.91
